sensor_id;sensor_type;location;lat;lon;timestamp;P1;durP1;ratioP1;P2;durP2;ratioP2
38715;SDS011;24833;49.324;8.694;2023-02-11T00:01:19;27.17;;;16.50;;
38715;SDS011;24833;49.324;8.694;2023-02-11T00:03:59;25.73;;;16.15;;
38715;SDS011;24833;49.324;8.694;2023-02-11T00:06:27;24.80;;;15.05;;
38715;SDS011;24833;49.324;8.694;2023-02-11T00:08:56;25.58;;;17.10;;
38715;SDS011;24833;49.324;8.694;2023-02-11T00:11:23;25.42;;;17.38;;
38715;SDS011;24833;49.324;8.694;2023-02-11T00:13:56;24.98;;;15.95;;
38715;SDS011;24833;49.324;8.694;2023-02-11T00:16:24;23.95;;;15.75;;
38715;SDS011;24833;49.324;8.694;2023-02-11T00:18:52;25.58;;;16.50;;
38715;SDS011;24833;49.324;8.694;2023-02-11T00:21:20;26.80;;;15.82;;
38715;SDS011;24833;49.324;8.694;2023-02-11T00:23:51;23.95;;;15.50;;
38715;SDS011;24833;49.324;8.694;2023-02-11T00:26:19;27.15;;;16.00;;
38715;SDS011;24833;49.324;8.694;2023-02-11T00:28:49;24.75;;;16.02;;
38715;SDS011;24833;49.324;8.694;2023-02-11T00:31:17;26.30;;;15.13;;
38715;SDS011;24833;49.324;8.694;2023-02-11T00:33:47;26.92;;;16.42;;
38715;SDS011;24833;49.324;8.694;2023-02-11T00:36:16;26.52;;;16.10;;
38715;SDS011;24833;49.324;8.694;2023-02-11T00:38:52;25.60;;;15.25;;
38715;SDS011;24833;49.324;8.694;2023-02-11T00:41:20;27.20;;;16.85;;
38715;SDS011;24833;49.324;8.694;2023-02-11T00:43:49;26.83;;;16.45;;
38715;SDS011;24833;49.324;8.694;2023-02-11T00:46:17;27.15;;;15.80;;
38715;SDS011;24833;49.324;8.694;2023-02-11T00:48:45;25.10;;;16.45;;
38715;SDS011;24833;49.324;8.694;2023-02-11T00:51:12;26.80;;;16.17;;
38715;SDS011;24833;49.324;8.694;2023-02-11T00:53:39;24.55;;;15.10;;
38715;SDS011;24833;49.324;8.694;2023-02-11T00:56:06;26.42;;;16.88;;
38715;SDS011;24833;49.324;8.694;2023-02-11T00:58:33;23.05;;;14.45;;
38715;SDS011;24833;49.324;8.694;2023-02-11T01:01:01;26.73;;;16.80;;
38715;SDS011;24833;49.324;8.694;2023-02-11T01:03:29;25.45;;;16.08;;
38715;SDS011;24833;49.324;8.694;2023-02-11T01:05:56;27.27;;;16.85;;
38715;SDS011;24833;49.324;8.694;2023-02-11T01:08:23;25.52;;;16.17;;
38715;SDS011;24833;49.324;8.694;2023-02-11T01:10:54;26.77;;;16.02;;
38715;SDS011;24833;49.324;8.694;2023-02-11T01:13:23;23.90;;;15.02;;
38715;SDS011;24833;49.324;8.694;2023-02-11T01:15:52;24.92;;;15.90;;
38715;SDS011;24833;49.324;8.694;2023-02-11T01:18:21;23.63;;;15.00;;
38715;SDS011;24833;49.324;8.694;2023-02-11T01:20:49;24.73;;;15.30;;
38715;SDS011;24833;49.324;8.694;2023-02-11T01:23:18;22.73;;;15.50;;
38715;SDS011;24833;49.324;8.694;2023-02-11T01:25:45;24.65;;;14.63;;
38715;SDS011;24833;49.324;8.694;2023-02-11T01:28:20;24.58;;;15.38;;
38715;SDS011;24833;49.324;8.694;2023-02-11T01:30:50;22.70;;;14.77;;
38715;SDS011;24833;49.324;8.694;2023-02-11T01:33:18;25.45;;;15.02;;
38715;SDS011;24833;49.324;8.694;2023-02-11T01:35:46;26.58;;;15.35;;
38715;SDS011;24833;49.324;8.694;2023-02-11T01:38:15;26.05;;;16.58;;
38715;SDS011;24833;49.324;8.694;2023-02-11T01:40:46;25.48;;;16.52;;
38715;SDS011;24833;49.324;8.694;2023-02-11T01:43:22;27.55;;;18.23;;
38715;SDS011;24833;49.324;8.694;2023-02-11T01:46:11;28.88;;;17.50;;
38715;SDS011;24833;49.324;8.694;2023-02-11T01:52:17;24.10;;;15.30;;
38715;SDS011;24833;49.324;8.694;2023-02-11T01:54:41;21.80;;;15.13;;
38715;SDS011;24833;49.324;8.694;2023-02-11T01:57:33;25.35;;;15.85;;
38715;SDS011;24833;49.324;8.694;2023-02-11T02:00:05;26.25;;;16.10;;
38715;SDS011;24833;49.324;8.694;2023-02-11T02:03:01;27.80;;;16.73;;
38715;SDS011;24833;49.324;8.694;2023-02-11T02:08:13;26.48;;;15.63;;
38715;SDS011;24833;49.324;8.694;2023-02-11T02:10:57;27.60;;;17.73;;
38715;SDS011;24833;49.324;8.694;2023-02-11T02:13:26;31.35;;;18.08;;
38715;SDS011;24833;49.324;8.694;2023-02-11T02:15:58;30.63;;;18.15;;
38715;SDS011;24833;49.324;8.694;2023-02-11T02:18:40;31.40;;;18.45;;
38715;SDS011;24833;49.324;8.694;2023-02-11T02:33:59;28.02;;;17.17;;
38715;SDS011;24833;49.324;8.694;2023-02-11T02:36:36;27.83;;;17.00;;
38715;SDS011;24833;49.324;8.694;2023-02-11T02:39:37;28.50;;;17.08;;
38715;SDS011;24833;49.324;8.694;2023-02-11T02:42:05;24.70;;;15.93;;
38715;SDS011;24833;49.324;8.694;2023-02-11T02:44:32;30.98;;;17.08;;
38715;SDS011;24833;49.324;8.694;2023-02-11T02:46:59;30.55;;;18.52;;
38715;SDS011;24833;49.324;8.694;2023-02-11T02:49:26;25.05;;;16.45;;
38715;SDS011;24833;49.324;8.694;2023-02-11T02:52:00;28.42;;;16.73;;
38715;SDS011;24833;49.324;8.694;2023-02-11T03:00:30;28.20;;;17.55;;
38715;SDS011;24833;49.324;8.694;2023-02-11T03:09:02;24.48;;;16.55;;
38715;SDS011;24833;49.324;8.694;2023-02-11T03:11:40;21.25;;;14.52;;
38715;SDS011;24833;49.324;8.694;2023-02-11T03:14:09;25.00;;;15.10;;
38715;SDS011;24833;49.324;8.694;2023-02-11T03:16:40;25.75;;;16.10;;
38715;SDS011;24833;49.324;8.694;2023-02-11T03:19:12;21.80;;;14.65;;
38715;SDS011;24833;49.324;8.694;2023-02-11T03:21:49;24.05;;;14.27;;
38715;SDS011;24833;49.324;8.694;2023-02-11T03:24:27;28.27;;;16.38;;
38715;SDS011;24833;49.324;8.694;2023-02-11T03:27:05;26.42;;;16.60;;
38715;SDS011;24833;49.324;8.694;2023-02-11T03:32:48;25.63;;;15.35;;
38715;SDS011;24833;49.324;8.694;2023-02-11T03:35:22;29.83;;;16.98;;
38715;SDS011;24833;49.324;8.694;2023-02-11T03:38:13;26.25;;;15.88;;
38715;SDS011;24833;49.324;8.694;2023-02-11T03:40:47;30.80;;;17.95;;
38715;SDS011;24833;49.324;8.694;2023-02-11T03:43:27;25.15;;;16.15;;
38715;SDS011;24833;49.324;8.694;2023-02-11T03:46:11;25.20;;;15.88;;
38715;SDS011;24833;49.324;8.694;2023-02-11T03:48:43;24.77;;;15.63;;
38715;SDS011;24833;49.324;8.694;2023-02-11T03:51:19;25.58;;;16.30;;
38715;SDS011;24833;49.324;8.694;2023-02-11T03:53:49;26.98;;;16.55;;
38715;SDS011;24833;49.324;8.694;2023-02-11T03:56:22;24.17;;;16.10;;
38715;SDS011;24833;49.324;8.694;2023-02-11T03:58:54;25.48;;;15.98;;
38715;SDS011;24833;49.324;8.694;2023-02-11T04:01:21;25.38;;;15.43;;
38715;SDS011;24833;49.324;8.694;2023-02-11T04:03:48;25.92;;;15.95;;
38715;SDS011;24833;49.324;8.694;2023-02-11T04:06:15;24.60;;;15.45;;
38715;SDS011;24833;49.324;8.694;2023-02-11T04:08:42;28.45;;;16.42;;
38715;SDS011;24833;49.324;8.694;2023-02-11T04:11:09;23.85;;;16.20;;
38715;SDS011;24833;49.324;8.694;2023-02-11T04:13:36;28.88;;;17.00;;
38715;SDS011;24833;49.324;8.694;2023-02-11T04:16:03;27.77;;;17.33;;
38715;SDS011;24833;49.324;8.694;2023-02-11T04:18:30;24.88;;;16.13;;
38715;SDS011;24833;49.324;8.694;2023-02-11T04:20:57;23.98;;;16.55;;
38715;SDS011;24833;49.324;8.694;2023-02-11T04:23:24;28.13;;;16.10;;
38715;SDS011;24833;49.324;8.694;2023-02-11T04:25:51;27.52;;;17.42;;
38715;SDS011;24833;49.324;8.694;2023-02-11T04:28:18;28.02;;;17.15;;
38715;SDS011;24833;49.324;8.694;2023-02-11T04:30:45;29.15;;;18.50;;
38715;SDS011;24833;49.324;8.694;2023-02-11T04:33:14;28.60;;;18.38;;
38715;SDS011;24833;49.324;8.694;2023-02-11T04:35:42;27.75;;;18.70;;
38715;SDS011;24833;49.324;8.694;2023-02-11T04:38:08;29.27;;;18.80;;
38715;SDS011;24833;49.324;8.694;2023-02-11T04:40:35;29.25;;;19.27;;
38715;SDS011;24833;49.324;8.694;2023-02-11T04:43:03;30.42;;;18.15;;
38715;SDS011;24833;49.324;8.694;2023-02-11T04:45:30;26.92;;;18.00;;
38715;SDS011;24833;49.324;8.694;2023-02-11T04:47:57;29.98;;;17.75;;
38715;SDS011;24833;49.324;8.694;2023-02-11T04:50:24;29.75;;;18.15;;
38715;SDS011;24833;49.324;8.694;2023-02-11T04:52:51;27.13;;;17.58;;
38715;SDS011;24833;49.324;8.694;2023-02-11T04:55:18;27.27;;;17.85;;
38715;SDS011;24833;49.324;8.694;2023-02-11T04:57:45;24.17;;;16.88;;
38715;SDS011;24833;49.324;8.694;2023-02-11T05:00:12;28.27;;;16.40;;
38715;SDS011;24833;49.324;8.694;2023-02-11T05:02:40;31.45;;;17.65;;
38715;SDS011;24833;49.324;8.694;2023-02-11T05:05:07;25.63;;;15.57;;
38715;SDS011;24833;49.324;8.694;2023-02-11T05:07:34;25.95;;;17.50;;
38715;SDS011;24833;49.324;8.694;2023-02-11T05:10:01;25.80;;;16.50;;
38715;SDS011;24833;49.324;8.694;2023-02-11T05:12:29;23.92;;;15.77;;
38715;SDS011;24833;49.324;8.694;2023-02-11T05:14:56;28.55;;;17.58;;
38715;SDS011;24833;49.324;8.694;2023-02-11T05:17:23;26.88;;;16.30;;
38715;SDS011;24833;49.324;8.694;2023-02-11T05:19:49;28.05;;;17.55;;
38715;SDS011;24833;49.324;8.694;2023-02-11T05:22:16;24.55;;;15.13;;
38715;SDS011;24833;49.324;8.694;2023-02-11T05:24:43;25.83;;;16.67;;
38715;SDS011;24833;49.324;8.694;2023-02-11T05:27:10;22.42;;;14.95;;
38715;SDS011;24833;49.324;8.694;2023-02-11T05:29:37;19.55;;;14.10;;
38715;SDS011;24833;49.324;8.694;2023-02-11T05:32:04;22.73;;;14.02;;
38715;SDS011;24833;49.324;8.694;2023-02-11T05:34:32;25.85;;;15.70;;
38715;SDS011;24833;49.324;8.694;2023-02-11T05:36:59;23.20;;;15.40;;
38715;SDS011;24833;49.324;8.694;2023-02-11T05:39:26;22.80;;;15.35;;
38715;SDS011;24833;49.324;8.694;2023-02-11T05:41:53;26.63;;;15.45;;
38715;SDS011;24833;49.324;8.694;2023-02-11T05:44:20;22.33;;;14.38;;
38715;SDS011;24833;49.324;8.694;2023-02-11T05:46:47;26.35;;;15.95;;
38715;SDS011;24833;49.324;8.694;2023-02-11T05:49:15;21.80;;;15.20;;
38715;SDS011;24833;49.324;8.694;2023-02-11T05:51:43;27.27;;;16.92;;
38715;SDS011;24833;49.324;8.694;2023-02-11T05:54:10;22.58;;;13.90;;
38715;SDS011;24833;49.324;8.694;2023-02-11T05:56:37;22.67;;;14.38;;
38715;SDS011;24833;49.324;8.694;2023-02-11T05:59:04;22.17;;;14.27;;
38715;SDS011;24833;49.324;8.694;2023-02-11T06:01:31;21.33;;;14.27;;
38715;SDS011;24833;49.324;8.694;2023-02-11T06:03:58;21.80;;;14.32;;
38715;SDS011;24833;49.324;8.694;2023-02-11T06:06:25;25.92;;;15.80;;
38715;SDS011;24833;49.324;8.694;2023-02-11T06:08:53;25.67;;;15.10;;
38715;SDS011;24833;49.324;8.694;2023-02-11T06:11:19;27.13;;;16.52;;
38715;SDS011;24833;49.324;8.694;2023-02-11T06:13:46;27.52;;;16.00;;
38715;SDS011;24833;49.324;8.694;2023-02-11T06:16:14;30.63;;;17.27;;
38715;SDS011;24833;49.324;8.694;2023-02-11T06:18:41;30.50;;;17.02;;
38715;SDS011;24833;49.324;8.694;2023-02-11T06:21:09;25.40;;;16.77;;
38715;SDS011;24833;49.324;8.694;2023-02-11T06:23:37;23.17;;;15.07;;
38715;SDS011;24833;49.324;8.694;2023-02-11T06:26:05;25.80;;;16.95;;
38715;SDS011;24833;49.324;8.694;2023-02-11T06:28:34;28.17;;;16.40;;
38715;SDS011;24833;49.324;8.694;2023-02-11T06:31:05;23.75;;;15.30;;
38715;SDS011;24833;49.324;8.694;2023-02-11T06:33:33;24.70;;;14.57;;
38715;SDS011;24833;49.324;8.694;2023-02-11T06:36:01;24.83;;;15.75;;
38715;SDS011;24833;49.324;8.694;2023-02-11T06:38:29;25.98;;;15.93;;
38715;SDS011;24833;49.324;8.694;2023-02-11T06:40:56;23.35;;;15.10;;
38715;SDS011;24833;49.324;8.694;2023-02-11T06:43:23;24.00;;;16.42;;
38715;SDS011;24833;49.324;8.694;2023-02-11T06:45:53;24.17;;;15.57;;
38715;SDS011;24833;49.324;8.694;2023-02-11T06:48:21;24.55;;;15.73;;
38715;SDS011;24833;49.324;8.694;2023-02-11T06:50:49;20.00;;;13.38;;
38715;SDS011;24833;49.324;8.694;2023-02-11T06:53:16;25.25;;;14.90;;
38715;SDS011;24833;49.324;8.694;2023-02-11T06:55:43;27.52;;;15.43;;
38715;SDS011;24833;49.324;8.694;2023-02-11T06:58:09;20.88;;;13.95;;
38715;SDS011;24833;49.324;8.694;2023-02-11T07:00:36;25.25;;;15.50;;
38715;SDS011;24833;49.324;8.694;2023-02-11T07:03:03;22.25;;;14.90;;
38715;SDS011;24833;49.324;8.694;2023-02-11T07:05:30;23.95;;;15.00;;
38715;SDS011;24833;49.324;8.694;2023-02-11T07:07:59;27.30;;;16.38;;
38715;SDS011;24833;49.324;8.694;2023-02-11T07:10:26;25.27;;;16.48;;
38715;SDS011;24833;49.324;8.694;2023-02-11T07:12:53;25.63;;;16.52;;
38715;SDS011;24833;49.324;8.694;2023-02-11T07:15:23;24.15;;;16.45;;
38715;SDS011;24833;49.324;8.694;2023-02-11T07:17:51;26.20;;;15.05;;
38715;SDS011;24833;49.324;8.694;2023-02-11T07:20:18;24.58;;;16.17;;
38715;SDS011;24833;49.324;8.694;2023-02-11T07:22:45;23.33;;;14.57;;
38715;SDS011;24833;49.324;8.694;2023-02-11T07:25:12;22.85;;;14.77;;
38715;SDS011;24833;49.324;8.694;2023-02-11T07:27:39;24.55;;;16.30;;
38715;SDS011;24833;49.324;8.694;2023-02-11T07:30:06;25.85;;;15.30;;
38715;SDS011;24833;49.324;8.694;2023-02-11T07:32:33;27.77;;;15.85;;
38715;SDS011;24833;49.324;8.694;2023-02-11T07:35:00;20.23;;;13.77;;
38715;SDS011;24833;49.324;8.694;2023-02-11T07:37:27;24.83;;;15.80;;
38715;SDS011;24833;49.324;8.694;2023-02-11T07:39:54;22.13;;;14.85;;
38715;SDS011;24833;49.324;8.694;2023-02-11T07:42:21;22.30;;;14.55;;
38715;SDS011;24833;49.324;8.694;2023-02-11T07:44:48;22.52;;;14.60;;
38715;SDS011;24833;49.324;8.694;2023-02-11T07:47:16;24.60;;;14.77;;
38715;SDS011;24833;49.324;8.694;2023-02-11T07:49:43;20.85;;;13.98;;
38715;SDS011;24833;49.324;8.694;2023-02-11T07:52:10;21.33;;;14.48;;
38715;SDS011;24833;49.324;8.694;2023-02-11T07:54:37;22.40;;;14.68;;
38715;SDS011;24833;49.324;8.694;2023-02-11T07:57:04;24.50;;;15.77;;
38715;SDS011;24833;49.324;8.694;2023-02-11T07:59:31;27.45;;;16.33;;
38715;SDS011;24833;49.324;8.694;2023-02-11T08:01:58;26.15;;;17.67;;
38715;SDS011;24833;49.324;8.694;2023-02-11T08:04:25;22.80;;;15.00;;
38715;SDS011;24833;49.324;8.694;2023-02-11T08:06:52;22.65;;;15.50;;
38715;SDS011;24833;49.324;8.694;2023-02-11T08:09:24;23.17;;;14.35;;
38715;SDS011;24833;49.324;8.694;2023-02-11T08:11:51;23.13;;;15.23;;
38715;SDS011;24833;49.324;8.694;2023-02-11T08:14:18;22.75;;;14.57;;
38715;SDS011;24833;49.324;8.694;2023-02-11T08:16:45;21.30;;;14.45;;
38715;SDS011;24833;49.324;8.694;2023-02-11T08:19:14;22.38;;;14.75;;
38715;SDS011;24833;49.324;8.694;2023-02-11T08:21:42;22.30;;;13.90;;
38715;SDS011;24833;49.324;8.694;2023-02-11T08:24:09;20.98;;;14.38;;
38715;SDS011;24833;49.324;8.694;2023-02-11T08:26:37;21.67;;;14.32;;
38715;SDS011;24833;49.324;8.694;2023-02-11T08:29:06;25.13;;;14.10;;
38715;SDS011;24833;49.324;8.694;2023-02-11T08:31:38;22.63;;;15.27;;
38715;SDS011;24833;49.324;8.694;2023-02-11T08:34:07;25.98;;;16.00;;
38715;SDS011;24833;49.324;8.694;2023-02-11T08:36:37;23.17;;;15.23;;
38715;SDS011;24833;49.324;8.694;2023-02-11T08:39:11;24.67;;;15.18;;
38715;SDS011;24833;49.324;8.694;2023-02-11T08:41:49;24.13;;;14.90;;
38715;SDS011;24833;49.324;8.694;2023-02-11T08:44:19;22.92;;;15.60;;
38715;SDS011;24833;49.324;8.694;2023-02-11T08:46:47;24.30;;;15.18;;
38715;SDS011;24833;49.324;8.694;2023-02-11T08:49:15;21.90;;;14.70;;
38715;SDS011;24833;49.324;8.694;2023-02-11T08:51:43;23.92;;;15.02;;
38715;SDS011;24833;49.324;8.694;2023-02-11T08:54:11;23.20;;;15.23;;
38715;SDS011;24833;49.324;8.694;2023-02-11T08:56:38;23.73;;;14.82;;
38715;SDS011;24833;49.324;8.694;2023-02-11T08:59:07;25.17;;;16.90;;
38715;SDS011;24833;49.324;8.694;2023-02-11T09:01:38;25.48;;;17.60;;
38715;SDS011;24833;49.324;8.694;2023-02-11T09:04:05;23.80;;;16.77;;
38715;SDS011;24833;49.324;8.694;2023-02-11T09:06:32;22.98;;;16.05;;
38715;SDS011;24833;49.324;8.694;2023-02-11T09:08:59;22.85;;;15.02;;
38715;SDS011;24833;49.324;8.694;2023-02-11T09:11:27;24.27;;;15.77;;
38715;SDS011;24833;49.324;8.694;2023-02-11T09:13:58;23.27;;;16.55;;
38715;SDS011;24833;49.324;8.694;2023-02-11T09:16:27;26.00;;;15.82;;
38715;SDS011;24833;49.324;8.694;2023-02-11T09:18:56;24.92;;;16.23;;
38715;SDS011;24833;49.324;8.694;2023-02-11T09:21:26;22.92;;;15.63;;
38715;SDS011;24833;49.324;8.694;2023-02-11T09:23:53;25.35;;;15.25;;
38715;SDS011;24833;49.324;8.694;2023-02-11T09:26:22;23.08;;;15.00;;
38715;SDS011;24833;49.324;8.694;2023-02-11T09:28:52;25.55;;;15.13;;
38715;SDS011;24833;49.324;8.694;2023-02-11T09:31:22;21.25;;;14.75;;
38715;SDS011;24833;49.324;8.694;2023-02-11T09:33:53;21.33;;;14.48;;
38715;SDS011;24833;49.324;8.694;2023-02-11T09:36:24;20.50;;;14.40;;
38715;SDS011;24833;49.324;8.694;2023-02-11T09:38:54;26.70;;;16.88;;
38715;SDS011;24833;49.324;8.694;2023-02-11T09:44:21;25.58;;;15.95;;
38715;SDS011;24833;49.324;8.694;2023-02-11T09:46:59;22.52;;;15.55;;
38715;SDS011;24833;49.324;8.694;2023-02-11T09:49:38;20.88;;;14.52;;
38715;SDS011;24833;49.324;8.694;2023-02-11T09:55:20;19.02;;;14.48;;
38715;SDS011;24833;49.324;8.694;2023-02-11T09:57:56;25.35;;;15.30;;
38715;SDS011;24833;49.324;8.694;2023-02-11T10:00:27;20.70;;;14.90;;
38715;SDS011;24833;49.324;8.694;2023-02-11T10:03:34;21.73;;;14.43;;
38715;SDS011;24833;49.324;8.694;2023-02-11T10:06:48;19.77;;;13.52;;
38715;SDS011;24833;49.324;8.694;2023-02-11T10:12:32;19.48;;;13.23;;
38715;SDS011;24833;49.324;8.694;2023-02-11T10:23:18;19.40;;;12.60;;
38715;SDS011;24833;49.324;8.694;2023-02-11T10:25:51;17.95;;;13.32;;
38715;SDS011;24833;49.324;8.694;2023-02-11T10:36:27;15.75;;;11.85;;
38715;SDS011;24833;49.324;8.694;2023-02-11T10:39:01;17.42;;;10.93;;
38715;SDS011;24833;49.324;8.694;2023-02-11T10:41:44;16.73;;;11.88;;
38715;SDS011;24833;49.324;8.694;2023-02-11T10:44:35;18.25;;;12.30;;
38715;SDS011;24833;49.324;8.694;2023-02-11T10:47:27;16.42;;;11.52;;
38715;SDS011;24833;49.324;8.694;2023-02-11T10:50:00;17.08;;;11.07;;
38715;SDS011;24833;49.324;8.694;2023-02-11T10:52:42;15.57;;;10.20;;
38715;SDS011;24833;49.324;8.694;2023-02-11T10:57:42;15.50;;;10.20;;
38715;SDS011;24833;49.324;8.694;2023-02-11T11:03:18;17.08;;;10.55;;
38715;SDS011;24833;49.324;8.694;2023-02-11T11:05:52;14.30;;;10.05;;
38715;SDS011;24833;49.324;8.694;2023-02-11T11:08:36;17.15;;;10.95;;
38715;SDS011;24833;49.324;8.694;2023-02-11T11:11:12;16.40;;;11.13;;
38715;SDS011;24833;49.324;8.694;2023-02-11T11:19:41;15.95;;;10.57;;
38715;SDS011;24833;49.324;8.694;2023-02-11T11:21:51;16.90;;;10.57;;
38715;SDS011;24833;49.324;8.694;2023-02-11T11:24:21;16.70;;;11.25;;
38715;SDS011;24833;49.324;8.694;2023-02-11T11:26:55;14.20;;;10.35;;
38715;SDS011;24833;49.324;8.694;2023-02-11T11:29:33;14.90;;;10.85;;
38715;SDS011;24833;49.324;8.694;2023-02-11T11:32:12;17.40;;;11.50;;
38715;SDS011;24833;49.324;8.694;2023-02-11T11:34:49;14.23;;;10.65;;
38715;SDS011;24833;49.324;8.694;2023-02-11T11:42:34;14.93;;;10.43;;
38715;SDS011;24833;49.324;8.694;2023-02-11T11:47:57;15.05;;;10.00;;
38715;SDS011;24833;49.324;8.694;2023-02-11T11:50:43;12.10;;;9.40;;
38715;SDS011;24833;49.324;8.694;2023-02-11T11:56:23;17.27;;;9.18;;
38715;SDS011;24833;49.324;8.694;2023-02-11T11:58:55;13.52;;;9.68;;
38715;SDS011;24833;49.324;8.694;2023-02-11T12:01:38;12.77;;;9.35;;
38715;SDS011;24833;49.324;8.694;2023-02-11T12:10:34;12.68;;;8.55;;
38715;SDS011;24833;49.324;8.694;2023-02-11T12:16:32;10.40;;;8.13;;
38715;SDS011;24833;49.324;8.694;2023-02-11T12:25:59;12.10;;;8.70;;
38715;SDS011;24833;49.324;8.694;2023-02-11T12:35:05;11.25;;;8.68;;
38715;SDS011;24833;49.324;8.694;2023-02-11T12:37:48;12.18;;;9.02;;
38715;SDS011;24833;49.324;8.694;2023-02-11T12:40:40;11.30;;;9.25;;
38715;SDS011;24833;49.324;8.694;2023-02-11T12:43:36;12.55;;;9.57;;
38715;SDS011;24833;49.324;8.694;2023-02-11T12:49:13;14.63;;;9.38;;
38715;SDS011;24833;49.324;8.694;2023-02-11T12:52:33;12.73;;;10.10;;
38715;SDS011;24833;49.324;8.694;2023-02-11T12:55:22;13.27;;;9.93;;
38715;SDS011;24833;49.324;8.694;2023-02-11T12:57:53;14.43;;;9.85;;
38715;SDS011;24833;49.324;8.694;2023-02-11T13:05:48;11.90;;;9.25;;
38715;SDS011;24833;49.324;8.694;2023-02-11T13:08:30;12.65;;;9.68;;
38715;SDS011;24833;49.324;8.694;2023-02-11T13:11:12;11.77;;;9.30;;
38715;SDS011;24833;49.324;8.694;2023-02-11T13:13:55;13.38;;;9.55;;
38715;SDS011;24833;49.324;8.694;2023-02-11T13:16:41;11.80;;;9.07;;
38715;SDS011;24833;49.324;8.694;2023-02-11T13:22:04;13.05;;;9.40;;
38715;SDS011;24833;49.324;8.694;2023-02-11T13:24:40;12.57;;;9.60;;
38715;SDS011;24833;49.324;8.694;2023-02-11T13:27:55;13.55;;;9.90;;
38715;SDS011;24833;49.324;8.694;2023-02-11T13:30:41;11.68;;;9.23;;
38715;SDS011;24833;49.324;8.694;2023-02-11T13:38:28;14.32;;;9.95;;
38715;SDS011;24833;49.324;8.694;2023-02-11T13:43:56;12.68;;;9.30;;
38715;SDS011;24833;49.324;8.694;2023-02-11T13:46:26;11.82;;;9.38;;
38715;SDS011;24833;49.324;8.694;2023-02-11T13:49:21;12.43;;;9.88;;
38715;SDS011;24833;49.324;8.694;2023-02-11T13:51:57;13.85;;;9.65;;
38715;SDS011;24833;49.324;8.694;2023-02-11T13:54:27;13.25;;;9.30;;
38715;SDS011;24833;49.324;8.694;2023-02-11T13:59:57;12.02;;;8.90;;
38715;SDS011;24833;49.324;8.694;2023-02-11T14:09:05;11.65;;;8.32;;
38715;SDS011;24833;49.324;8.694;2023-02-11T14:11:42;11.18;;;9.23;;
38715;SDS011;24833;49.324;8.694;2023-02-11T14:27:43;12.10;;;9.18;;
38715;SDS011;24833;49.324;8.694;2023-02-11T14:39:20;13.80;;;9.57;;
38715;SDS011;24833;49.324;8.694;2023-02-11T14:42:15;12.18;;;9.57;;
38715;SDS011;24833;49.324;8.694;2023-02-11T14:44:47;12.57;;;9.88;;
38715;SDS011;24833;49.324;8.694;2023-02-11T14:47:17;13.07;;;9.38;;
38715;SDS011;24833;49.324;8.694;2023-02-11T14:49:48;13.27;;;9.55;;
38715;SDS011;24833;49.324;8.694;2023-02-11T14:52:26;13.88;;;9.52;;
38715;SDS011;24833;49.324;8.694;2023-02-11T14:55:42;15.27;;;10.43;;
38715;SDS011;24833;49.324;8.694;2023-02-11T14:57:45;13.13;;;9.52;;
38715;SDS011;24833;49.324;8.694;2023-02-11T15:00:16;14.05;;;9.27;;
38715;SDS011;24833;49.324;8.694;2023-02-11T15:02:47;13.27;;;9.98;;
38715;SDS011;24833;49.324;8.694;2023-02-11T15:05:16;14.52;;;10.32;;
38715;SDS011;24833;49.324;8.694;2023-02-11T15:07:52;12.18;;;9.38;;
38715;SDS011;24833;49.324;8.694;2023-02-11T15:13:07;13.75;;;9.32;;
38715;SDS011;24833;49.324;8.694;2023-02-11T15:15:34;13.10;;;8.75;;
38715;SDS011;24833;49.324;8.694;2023-02-11T15:18:05;12.63;;;9.13;;
38715;SDS011;24833;49.324;8.694;2023-02-11T15:20:34;12.18;;;8.82;;
38715;SDS011;24833;49.324;8.694;2023-02-11T15:23:03;14.90;;;8.73;;
38715;SDS011;24833;49.324;8.694;2023-02-11T15:25:41;12.30;;;9.23;;
38715;SDS011;24833;49.324;8.694;2023-02-11T15:31:19;12.32;;;8.63;;
38715;SDS011;24833;49.324;8.694;2023-02-11T15:33:52;13.02;;;9.43;;
38715;SDS011;24833;49.324;8.694;2023-02-11T15:36:22;11.88;;;8.38;;
38715;SDS011;24833;49.324;8.694;2023-02-11T15:42:14;10.93;;;7.72;;
38715;SDS011;24833;49.324;8.694;2023-02-11T15:45:20;12.15;;;8.20;;
38715;SDS011;24833;49.324;8.694;2023-02-11T15:47:55;10.13;;;7.95;;
38715;SDS011;24833;49.324;8.694;2023-02-11T15:50:39;14.40;;;9.38;;
38715;SDS011;24833;49.324;8.694;2023-02-11T15:53:27;11.73;;;7.72;;
38715;SDS011;24833;49.324;8.694;2023-02-11T15:56:13;10.98;;;8.48;;
38715;SDS011;24833;49.324;8.694;2023-02-11T15:58:58;10.07;;;8.00;;
38715;SDS011;24833;49.324;8.694;2023-02-11T16:01:53;10.98;;;7.80;;
38715;SDS011;24833;49.324;8.694;2023-02-11T16:04:21;10.55;;;7.60;;
38715;SDS011;24833;49.324;8.694;2023-02-11T16:09:21;9.50;;;7.53;;
38715;SDS011;24833;49.324;8.694;2023-02-11T16:12:16;12.18;;;8.25;;
38715;SDS011;24833;49.324;8.694;2023-02-11T16:14:54;10.88;;;7.75;;
38715;SDS011;24833;49.324;8.694;2023-02-11T16:17:25;11.13;;;7.82;;
38715;SDS011;24833;49.324;8.694;2023-02-11T16:19:54;12.02;;;8.48;;
38715;SDS011;24833;49.324;8.694;2023-02-11T16:24:54;12.63;;;8.48;;
38715;SDS011;24833;49.324;8.694;2023-02-11T16:27:25;13.77;;;8.82;;
38715;SDS011;24833;49.324;8.694;2023-02-11T16:30:16;11.05;;;7.95;;
38715;SDS011;24833;49.324;8.694;2023-02-11T16:33:02;12.45;;;8.55;;
38715;SDS011;24833;49.324;8.694;2023-02-11T16:35:30;12.18;;;8.90;;
38715;SDS011;24833;49.324;8.694;2023-02-11T16:37:58;15.10;;;8.38;;
38715;SDS011;24833;49.324;8.694;2023-02-11T16:40:24;11.75;;;7.97;;
38715;SDS011;24833;49.324;8.694;2023-02-11T16:42:51;13.65;;;8.57;;
38715;SDS011;24833;49.324;8.694;2023-02-11T16:45:18;11.82;;;8.57;;
38715;SDS011;24833;49.324;8.694;2023-02-11T16:47:45;15.73;;;8.88;;
38715;SDS011;24833;49.324;8.694;2023-02-11T16:50:19;12.85;;;8.85;;
38715;SDS011;24833;49.324;8.694;2023-02-11T16:52:50;13.27;;;8.68;;
38715;SDS011;24833;49.324;8.694;2023-02-11T16:55:18;11.88;;;8.77;;
38715;SDS011;24833;49.324;8.694;2023-02-11T16:57:47;13.45;;;8.65;;
38715;SDS011;24833;49.324;8.694;2023-02-11T17:00:15;17.80;;;9.13;;
38715;SDS011;24833;49.324;8.694;2023-02-11T17:02:42;12.20;;;8.60;;
38715;SDS011;24833;49.324;8.694;2023-02-11T17:05:14;14.45;;;9.23;;
38715;SDS011;24833;49.324;8.694;2023-02-11T17:07:45;14.02;;;8.15;;
38715;SDS011;24833;49.324;8.694;2023-02-11T17:10:15;12.93;;;9.20;;
38715;SDS011;24833;49.324;8.694;2023-02-11T17:12:49;12.65;;;8.70;;
38715;SDS011;24833;49.324;8.694;2023-02-11T17:15:17;12.15;;;8.98;;
38715;SDS011;24833;49.324;8.694;2023-02-11T17:17:44;14.98;;;9.55;;
38715;SDS011;24833;49.324;8.694;2023-02-11T17:20:11;16.23;;;10.60;;
38715;SDS011;24833;49.324;8.694;2023-02-11T17:22:39;13.32;;;8.82;;
38715;SDS011;24833;49.324;8.694;2023-02-11T17:25:06;13.75;;;10.10;;
38715;SDS011;24833;49.324;8.694;2023-02-11T17:27:34;13.40;;;8.88;;
38715;SDS011;24833;49.324;8.694;2023-02-11T17:30:01;14.82;;;9.40;;
38715;SDS011;24833;49.324;8.694;2023-02-11T17:32:28;14.23;;;8.63;;
38715;SDS011;24833;49.324;8.694;2023-02-11T17:34:55;11.25;;;9.10;;
38715;SDS011;24833;49.324;8.694;2023-02-11T17:37:22;12.77;;;9.85;;
38715;SDS011;24833;49.324;8.694;2023-02-11T17:39:49;13.77;;;9.48;;
38715;SDS011;24833;49.324;8.694;2023-02-11T17:42:16;13.38;;;9.55;;
38715;SDS011;24833;49.324;8.694;2023-02-11T17:44:46;12.73;;;8.95;;